»·PEaware :: JNY60 KSFO-KRNO

JNY60 :: KSFO-KRNO

FLIGHT INFORMATION

Flight Status: Arrived
Operator: Unknown
More flights by this operator :: More flights under this callsign
Pilot: Max W. (2591)
Aircraft: AIRBUS A320
(A320)
More flights by this aircraft type
Origin: KSFO San Francisco Intl
United States
Destination: KRNO Reno/Tahoe Intl
United States
More flights between these airports :: More routes between these airports
Route: TRUKN2 ORRCA HOBOA WALAR
File this flight plan on PilotEdge
Remarks: 1 STRIKE LEFT
Altitude:
(Current/Filed)
23,000ft
Speed:
(Current/Filed)
450kts
Departed: 10-Oct-19 12:01 PM
Arrived: 10-Oct-19 12:42 PM
Distance/Time
Traveled:
167nm/0:41
Distance/Time
To Go:
Arrived

Flight Plot

Page will automatically refresh every two minutes.

Flight plan parsing failed; only flown route is shown


Map Options




Map Legend


Flown Route
Filed Route
Departure Airport
Arrival Airport
Navaid (VOR, NDB)
Fix

Horizontal Profiles

Position Reports

Time Latitude Longitude Heading Altitude Ground
Speed
10-Oct-19 11:50 37.627177 -122.383609 297 21ft 0kts
10-Oct-19 11:51 37.627177 -122.383609 297 21ft 0kts
10-Oct-19 11:52 37.627177 -122.383609 297 21ft 0kts
10-Oct-19 11:53 37.627177 -122.383609 297 21ft 0kts
10-Oct-19 11:54 37.627196 -122.383686 279 21ft 0kts
10-Oct-19 11:55 37.627191 -122.383746 264 21ft 0kts
10-Oct-19 11:56 37.627200 -122.384421 232 21ft 0kts
10-Oct-19 11:57 37.626968 -122.384561 197 21ft 0kts
10-Oct-19 11:58 37.628115 -122.388205 299 21ft 36kts
10-Oct-19 11:58 37.629232 -122.396534 171 21ft 6kts
10-Oct-19 12:00 37.623598 -122.389558 119 21ft 30kts
10-Oct-19 12:01 37.618265 -122.378830 162 21ft 41kts
10-Oct-19 12:01 37.610818 -122.382533 207 21ft 41kts
10-Oct-19 12:02 37.606786 -122.382161 69 21ft 8kts
10-Oct-19 12:04 37.606795 -122.382124 74 21ft 0kts
10-Oct-19 12:04 37.606627 -122.381245 92 21ft 15kts
10-Oct-19 12:05 37.643413 -122.353210 46 3286ft 199kts
10-Oct-19 12:06 37.673276 -122.299566 54 9546ft 196kts
10-Oct-19 12:07 37.707785 -122.233989 54 12628ft 280kts
10-Oct-19 12:08 37.777090 -122.160613 34 14457ft 365kts
10-Oct-19 12:09 37.860461 -122.085334 33 17892ft 373kts
10-Oct-19 12:10 37.946832 -122.007021 33 20597ft 391kts
10-Oct-19 12:11 38.037509 -121.924462 32 22874ft 405kts
10-Oct-19 12:12 38.129428 -121.840564 32 23089ft 408kts
10-Oct-19 12:13 38.221662 -121.756087 32 23082ft 408kts
10-Oct-19 12:14 38.313593 -121.671612 32 23091ft 408kts
10-Oct-19 12:15 38.395087 -121.596500 32 23101ft 407kts
10-Oct-19 12:16 38.485098 -121.508206 41 23100ft 411kts
10-Oct-19 12:17 38.565578 -121.403698 41 23098ft 411kts
10-Oct-19 12:18 38.645254 -121.300913 42 23091ft 411kts
10-Oct-19 12:19 38.726050 -121.196451 42 23082ft 411kts
10-Oct-19 12:20 38.805942 -121.092817 42 23097ft 406kts
10-Oct-19 12:21 38.885056 -120.989847 42 23101ft 402kts
10-Oct-19 12:22 38.963414 -120.887514 42 23114ft 398kts
10-Oct-19 12:23 39.040863 -120.786020 42 23167ft 395kts
10-Oct-19 12:24 39.112292 -120.692145 42 23197ft 383kts
10-Oct-19 12:25 39.182696 -120.599271 42 22140ft 325kts
10-Oct-19 12:26 39.244325 -120.517832 42 20377ft 311kts
10-Oct-19 12:27 39.303323 -120.439575 43 17914ft 296kts
10-Oct-19 12:28 39.359575 -120.364810 44 16260ft 293kts
10-Oct-19 12:29 39.413518 -120.291283 48 15952ft 290kts
10-Oct-19 12:30 39.465796 -120.213232 48 15371ft 282kts
10-Oct-19 12:31 39.516793 -120.136957 49 13592ft 276kts
10-Oct-19 12:32 39.566661 -120.062184 50 11886ft 270kts
10-Oct-19 12:33 39.615408 -119.988913 50 10219ft 265kts
10-Oct-19 12:34 39.658779 -119.922806 61 9551ft 210kts
10-Oct-19 12:35 39.672682 -119.859311 74 8075ft 204kts
10-Oct-19 12:36 39.686357 -119.788214 101 7053ft 206kts
10-Oct-19 12:37 39.632544 -119.768701 176 6777ft 223kts
10-Oct-19 12:38 39.577236 -119.769092 175 5783ft 175kts
10-Oct-19 12:39 39.538914 -119.769154 173 5021ft 120kts
10-Oct-19 12:40 39.506932 -119.769179 180 4418ft 53kts
10-Oct-19 12:41 39.502411 -119.765698 158 4418ft 25kts

Navigation Log

Ident Type
Flight plan parsing failed, navigation log unavailable